Time;durP1;ratioP1;P1;durP2;ratioP2;P2;SDS_P1;SDS_P2;PMS_P1;PMS_P2;Temp;Humidity;BMP_temperature;BMP_pressure;BME280_temperature;BME280_humidity;BME280_pressure;Samples;Min_cycle;Max_cycle;Signal;HPM_P1;HPM_P2
2021/12/17 00:01:48;;;;;;;0.40;0.40;;;3.90;99.90;3.70;98138.00;;;;5110409;28;20221;-81
2021/12/17 00:04:51;;;;;;;0.30;0.30;;;3.90;99.90;3.80;98154.00;;;;5097481;28;20222;-83
2021/12/17 00:07:40;;;;;;;0.30;0.30;;;3.90;99.90;3.80;98143.00;;;;5077148;28;20214;-83
2021/12/17 00:10:29;;;;;;;0.30;0.30;;;4.10;99.90;3.80;98144.00;;;;5071771;28;20779;-84
2021/12/17 00:13:19;;;;;;;0.30;0.30;;;3.90;99.90;3.70;98152.00;;;;5073803;28;20212;-81
2021/12/17 00:16:14;;;;;;;0.60;0.60;;;3.90;99.90;3.60;98147.00;;;;5090006;28;20586;-83
2021/12/17 00:19:18;;;;;;;0.73;0.50;;;3.80;99.90;3.10;98144.00;;;;5091634;28;20594;-81
2021/12/17 00:50:43;;;;;;;1.03;0.73;;;2.90;99.90;1.90;98146.00;;;;5096122;28;20456;-81
2021/12/17 00:53:34;;;;;;;0.60;0.60;;;2.70;99.90;2.10;98149.00;;;;5084534;28;20441;-81
2021/12/17 00:56:23;;;;;;;1.17;0.77;;;2.60;99.90;1.70;98141.00;;;;5086748;28;20445;-82
2021/12/17 00:59:12;;;;;;;0.80;0.80;;;2.50;99.90;2.00;98150.00;;;;5068061;28;20438;-84
2021/12/17 01:02:05;;;;;;;1.07;0.93;;;2.40;99.90;1.90;98147.00;;;;5070265;28;20426;-83
2021/12/17 01:04:58;;;;;;;0.40;0.40;;;2.40;99.90;2.00;98156.00;;;;5070521;28;20742;-84
2021/12/17 01:07:50;;;;;;;2.23;0.80;;;2.50;99.90;2.10;98145.00;;;;5074314;28;20429;-82
2021/12/17 01:10:45;;;;;;;3.23;1.40;;;2.40;99.90;1.40;98143.00;;;;5073745;28;20457;-80
2021/12/17 01:13:40;;;;;;;0.50;0.50;;;2.40;99.90;1.30;98142.00;;;;5072229;28;20431;-82
2021/12/17 01:16:30;;;;;;;0.50;0.50;;;2.20;99.90;1.50;98133.00;;;;5072935;28;20931;-80
2021/12/17 01:19:28;;;;;;;0.60;0.50;;;2.10;99.90;1.70;98146.00;;;;5073225;28;20778;-83
2021/12/17 01:22:43;;;;;;;0.70;0.50;;;2.10;99.90;2.10;98123.00;;;;5074475;28;20442;-82
2021/12/17 01:35:19;;;;;;;0.70;0.70;;;0.30;99.90;2.40;98141.00;;;;5073490;28;20481;-84
2021/12/17 01:35:25;;;;;;;1.13;0.90;;;2.70;99.90;2.10;98149.00;;;;5067249;28;20430;-83
2021/12/17 01:41:47;;;;;;;2.70;0.90;;;2.60;99.90;1.00;98133.00;;;;5066948;28;20439;-81
2021/12/17 01:44:41;;;;;;;1.10;1.00;;;2.40;99.90;1.10;98126.00;;;;5065983;28;20434;-79
2021/12/17 01:47:30;;;;;;;0.63;0.63;;;2.00;99.90;1.40;98132.00;;;;5075180;28;20802;-81
2021/12/17 01:56:51;;;;;;;0.80;0.70;;;2.10;99.90;2.20;98116.00;;;;5063085;28;20427;-82
2021/12/17 01:59:40;;;;;;;1.13;0.80;;;2.50;99.90;2.10;98102.00;;;;5055997;28;20470;-83
2021/12/17 02:02:37;;;;;;;0.53;0.50;;;2.30;99.90;2.20;98111.00;;;;5073888;28;20423;-83
2021/12/17 02:05:26;;;;;;;1.30;1.10;;;2.40;99.90;2.20;98116.00;;;;5072142;28;20588;-83
2021/12/17 02:08:15;;;;;;;0.70;0.50;;;3.10;99.90;1.80;98116.00;;;;5072000;28;20433;-80
2021/12/17 02:21:15;;;;;;;0.60;0.60;;;1.70;99.90;1.40;98097.00;;;;5065951;28;20453;-83
2021/12/17 02:30:49;;;;;;;1.00;0.90;;;1.80;99.90;1.00;98107.00;;;;5050591;28;20447;-81
2021/12/17 02:33:39;;;;;;;2.43;0.93;;;1.70;99.90;1.10;98107.00;;;;5050804;28;20442;-81
2021/12/17 02:36:32;;;;;;;0.67;0.53;;;1.70;99.90;1.70;98101.00;;;;5052434;28;20419;-82
2021/12/17 02:39:46;;;;;;;0.60;0.60;;;2.10;99.90;1.20;98108.00;;;;5061821;28;20472;-80
2021/12/17 02:45:31;;;;;;;0.83;0.70;;;1.80;99.90;1.20;98107.00;;;;5054348;28;20415;-83
2021/12/17 02:45:48;;;;;;;5.20;0.80;;;1.80;99.90;1.00;98105.00;;;;5057709;28;20474;-80
2021/12/17 02:48:38;;;;;;;0.70;0.70;;;1.70;99.90;1.30;98114.00;;;;5093239;28;20411;-80
2021/12/17 02:51:28;;;;;;;0.63;0.57;;;1.70;99.90;1.50;98110.00;;;;5070436;28;21033;-83
2021/12/17 02:54:17;;;;;;;0.70;0.70;;;1.70;99.90;0.40;98111.00;;;;5073389;28;20443;-83
2021/12/17 02:57:08;;;;;;;0.60;0.60;;;1.60;99.90;0.70;98096.00;;;;5073678;28;20430;-81
2021/12/17 02:59:57;;;;;;;0.40;0.40;;;1.40;99.90;0.80;98085.00;;;;5074492;28;20438;-81
2021/12/17 03:02:48;;;;;;;0.37;0.37;;;1.40;99.90;0.30;98086.00;;;;5072240;28;20419;-81
2021/12/17 03:05:39;;;;;;;0.63;0.63;;;1.30;99.90;0.50;98081.00;;;;5072232;28;20422;-83
2021/12/17 03:08:30;;;;;;;0.70;0.70;;;1.20;99.90;0.60;98087.00;;;;5062928;28;20430;-83
2021/12/17 03:11:19;;;;;;;0.50;0.50;;;2.20;99.90;0.70;98081.00;;;;5070298;28;20449;-84
2021/12/17 03:14:08;;;;;;;0.33;0.33;;;1.20;99.90;1.00;98081.00;;;;5067603;28;20419;-84
2021/12/17 03:17:07;;;;;;;0.50;0.50;;;1.20;99.90;1.10;98078.00;;;;5073004;28;20422;-82
2021/12/17 03:26:18;;;;;;;0.77;0.73;;;1.90;99.90;1.40;98100.00;;;;5070357;28;20485;-82
2021/12/17 03:29:09;;;;;;;0.57;0.57;;;1.90;99.90;1.10;98093.00;;;;5067960;28;20923;-83
2021/12/17 03:31:58;;;;;;;0.97;0.80;;;1.80;99.90;1.10;98079.00;;;;5071378;28;20423;-83
2021/12/17 03:34:47;;;;;;;0.70;0.70;;;1.60;99.90;1.20;98076.00;;;;5070857;28;20915;-84
2021/12/17 03:37:36;;;;;;;1.43;0.90;;;1.70;99.90;0.90;98081.00;;;;5071469;28;20427;-83
2021/12/17 03:40:26;;;;;;;0.60;0.60;;;1.60;99.90;0.70;98069.00;;;;5070145;28;20447;-84
2021/12/17 03:43:22;;;;;;;0.60;0.60;;;1.40;99.90;0.80;98089.00;;;;5072001;28;20799;-83
2021/12/17 03:46:11;;;;;;;0.60;0.60;;;1.40;99.90;0.60;98085.00;;;;5071733;28;20470;-84
2021/12/17 03:49:02;;;;;;;0.60;0.60;;;1.30;99.90;0.30;98091.00;;;;5071541;28;20910;-84
2021/12/17 03:52:03;;;;;;;0.60;0.60;;;1.10;99.90;0.70;98095.00;;;;5070786;28;21056;-84
2021/12/17 03:54:52;;;;;;;0.60;0.60;;;1.10;99.90;0.70;98102.00;;;;5064664;28;20428;-83
2021/12/17 03:57:41;;;;;;;0.70;0.70;;;1.20;99.90;0.90;98079.00;;;;5072063;28;20418;-84
2021/12/17 04:00:32;;;;;;;0.67;0.60;;;1.20;99.90;0.70;98067.00;;;;5070975;28;20446;-83
2021/12/17 04:03:21;;;;;;;0.70;0.70;;;1.30;99.90;0.10;98062.00;;;;5071519;28;20610;-84
2021/12/17 04:06:10;;;;;;;0.60;0.60;;;1.20;99.90;0.30;98059.00;;;;5070184;28;20473;-84
2021/12/17 04:08:59;;;;;;;0.50;0.50;;;1.10;99.90;0.70;98061.00;;;;5073020;28;20966;-83
2021/12/17 04:11:48;;;;;;;0.87;0.70;;;1.10;99.90;0.60;98067.00;;;;5060731;28;20423;-84
2021/12/17 04:14:44;;;;;;;0.87;0.60;;;1.10;99.90;0.50;98070.00;;;;5066491;28;20962;-84
2021/12/17 04:17:41;;;;;;;0.73;0.73;;;1.00;99.90;0.50;98073.00;;;;5060358;28;20436;-83
2021/12/17 04:20:30;;;;;;;0.60;0.60;;;1.40;99.90;0.70;98070.00;;;;5071712;28;20443;-83
2021/12/17 04:23:20;;;;;;;1.10;0.60;;;1.10;99.90;0.70;98063.00;;;;5073426;28;20434;-83
2021/12/17 04:26:09;;;;;;;0.40;0.40;;;1.00;99.90;0.80;98064.00;;;;5071428;28;20430;-84
2021/12/17 04:28:58;;;;;;;0.50;0.50;;;1.10;99.90;1.10;98055.00;;;;5071018;28;20462;-84
2021/12/17 04:31:53;;;;;;;0.40;0.40;;;1.10;99.90;1.60;98052.00;;;;5067510;28;20438;-84
2021/12/17 04:34:43;;;;;;;0.87;0.63;;;1.60;99.90;1.20;98050.00;;;;5064769;28;20426;-84
2021/12/17 04:37:32;;;;;;;0.87;0.87;;;1.50;99.90;1.10;98050.00;;;;5071600;28;20433;-83
2021/12/17 04:40:23;;;;;;;0.60;0.60;;;1.30;99.90;1.10;98046.00;;;;5067713;28;20442;-84
2021/12/17 04:43:18;;;;;;;0.80;0.80;;;1.50;99.90;0.50;98052.00;;;;5066191;28;20430;-84
2021/12/17 04:46:20;;;;;;;0.47;0.47;;;1.40;99.90;0.30;98061.00;;;;5080033;28;20434;-84
2021/12/17 04:58:26;;;;;;;0.40;0.40;;;1.30;99.90;0.30;98034.00;;;;5075197;28;20423;-83
2021/12/17 05:01:17;;;;;;;0.50;0.50;;;1.00;99.90;0.60;98033.00;;;;5067943;28;20446;-84
2021/12/17 05:04:06;;;;;;;0.40;0.40;;;1.00;99.90;1.40;98053.00;;;;5074090;28;20410;-83
2021/12/17 05:06:54;;;;;;;0.50;0.50;;;1.40;99.90;1.60;98060.00;;;;5067624;28;20466;-84
2021/12/17 05:09:52;;;;;;;0.60;0.60;;;1.50;99.90;1.20;98059.00;;;;5079299;28;20457;-84
2021/12/17 05:18:59;;;;;;;0.50;0.50;;;1.70;99.90;1.40;98066.00;;;;5074714;28;20434;-82
2021/12/17 05:21:48;;;;;;;0.50;0.50;;;1.70;99.90;1.40;98074.00;;;;5071838;28;20426;-82
2021/12/17 05:24:37;;;;;;;0.80;0.40;;;1.70;99.90;1.50;98070.00;;;;5059725;28;20797;-84
2021/12/17 05:27:27;;;;;;;0.97;0.90;;;2.00;99.90;1.50;98071.00;;;;5068934;28;20466;-83
2021/12/17 05:30:16;;;;;;;0.70;0.70;;;1.70;99.90;1.40;98074.00;;;;5072984;28;20469;-83
2021/12/17 05:33:05;;;;;;;0.50;0.50;;;1.70;99.90;1.40;98080.00;;;;5063717;28;20431;-83
2021/12/17 05:35:55;;;;;;;0.67;0.60;;;1.70;99.90;1.40;98081.00;;;;5094980;28;20422;-82
2021/12/17 05:38:43;;;;;;;0.50;0.50;;;1.70;99.90;1.20;98065.00;;;;5083025;28;20427;-83
2021/12/17 05:41:32;;;;;;;1.00;0.80;;;1.70;99.90;0.40;98067.00;;;;5073985;28;20443;-83
2021/12/17 05:44:24;;;;;;;0.60;0.60;;;1.50;99.90;0.90;98077.00;;;;5076216;28;20442;-84
2021/12/17 05:47:13;;;;;;;0.50;0.50;;;1.40;99.90;1.00;98088.00;;;;5070000;28;20521;-83
2021/12/17 05:50:01;;;;;;;1.50;0.60;;;1.40;99.90;1.30;98088.00;;;;5056106;28;20455;-83
2021/12/17 05:52:50;;;;;;;0.40;0.33;;;1.60;99.90;1.20;98093.00;;;;5063571;28;20433;-84
2021/12/17 05:55:39;;;;;;;0.53;0.50;;;1.60;99.90;1.20;98090.00;;;;5074135;28;20434;-83
2021/12/17 05:58:29;;;;;;;0.50;0.50;;;1.50;99.90;0.90;98080.00;;;;5061477;28;20782;-83
2021/12/17 06:01:19;;;;;;;0.73;0.73;;;1.50;99.90;1.00;98078.00;;;;5072599;28;20446;-83
2021/12/17 06:04:08;;;;;;;0.90;0.60;;;1.50;99.90;1.30;98074.00;;;;5070829;28;20428;-84
2021/12/17 06:06:57;;;;;;;0.50;0.50;;;1.60;99.90;1.30;98073.00;;;;5072002;28;20434;-84
2021/12/17 06:09:47;;;;;;;0.67;0.67;;;1.70;99.90;1.10;98080.00;;;;5066828;28;20827;-84
2021/12/17 06:12:36;;;;;;;0.53;0.47;;;1.70;99.90;1.20;98083.00;;;;5057063;28;20428;-83
2021/12/17 06:15:25;;;;;;;0.67;0.63;;;1.60;99.90;0.90;98075.00;;;;5083549;28;20443;-83
2021/12/17 06:18:15;;;;;;;1.37;0.90;;;1.50;99.90;1.00;98073.00;;;;5069740;28;20435;-83
2021/12/17 06:21:04;;;;;;;2.43;1.10;;;1.80;99.90;0.70;98074.00;;;;5054793;28;20526;-83
2021/12/17 06:23:53;;;;;;;2.63;2.03;;;1.60;99.90;0.80;98089.00;;;;5071629;28;20434;-84
2021/12/17 06:26:42;;;;;;;2.80;2.50;;;1.40;99.90;0.70;98077.00;;;;5073499;28;20781;-82
2021/12/17 06:29:31;;;;;;;5.60;1.83;;;1.30;99.90;0.70;98076.00;;;;5059945;28;20427;-83
2021/12/17 06:32:21;;;;;;;1.20;1.10;;;1.20;99.90;0.80;98087.00;;;;5073643;28;20437;-83
2021/12/17 06:35:11;;;;;;;0.80;0.80;;;1.20;99.90;0.70;98092.00;;;;5053539;28;20431;-83
2021/12/17 06:38:00;;;;;;;1.43;1.07;;;1.20;99.90;0.60;98082.00;;;;5062553;28;20446;-82
2021/12/17 06:40:53;;;;;;;1.23;1.03;;;1.50;99.90;0.70;98065.00;;;;5072597;28;20940;-83
2021/12/17 06:43:43;;;;;;;0.93;0.93;;;1.20;99.90;0.70;98081.00;;;;5063426;28;20419;-83
2021/12/17 06:46:38;;;;;;;1.30;1.20;;;1.10;99.90;0.20;98094.00;;;;5066058;28;20805;-83
2021/12/17 06:49:41;;;;;;;1.03;0.93;;;1.40;99.90;0.30;98090.00;;;;5078328;28;20473;-82
2021/12/17 06:59:11;;;;;;;0.97;0.80;;;0.80;99.90;0.00;98098.00;;;;5008102;28;20440;-82
2021/12/17 07:11:34;;;;;;;0.50;0.50;;;0.30;99.90;0.00;98082.00;;;;5068457;28;20449;-83
2021/12/17 07:17:47;;;;;;;0.93;0.80;;;0.40;99.90;0.30;98094.00;;;;5007987;28;20425;-83
2021/12/17 07:33:39;;;;;;;1.03;0.87;;;0.70;99.90;0.20;98098.00;;;;5032167;28;20448;-82
2021/12/17 07:36:38;;;;;;;1.40;1.30;;;0.70;99.90;0.30;98093.00;;;;5072095;28;20426;-82
2021/12/17 07:39:27;;;;;;;1.23;0.80;;;0.70;99.90;0.60;98088.00;;;;5058214;28;20589;-81
2021/12/17 07:42:16;;;;;;;2.27;1.30;;;0.70;99.90;0.50;98094.00;;;;5057689;28;20928;-82
2021/12/17 07:45:06;;;;;;;1.73;0.90;;;0.80;99.90;0.50;98091.00;;;;5055699;28;20450;-82
2021/12/17 07:47:55;;;;;;;8.03;0.97;;;0.80;99.90;0.80;98098.00;;;;5057068;28;20471;-82
2021/12/17 07:50:44;;;;;;;1.20;1.00;;;0.90;99.90;0.90;98098.00;;;;5057513;28;20450;-82
2021/12/17 07:53:34;;;;;;;0.73;0.67;;;1.00;99.90;0.70;98109.00;;;;5057204;28;20490;-82
2021/12/17 07:56:30;;;;;;;0.93;0.87;;;1.00;99.90;0.90;98110.00;;;;5054182;28;20434;-83
2021/12/17 07:59:19;;;;;;;0.80;0.80;;;1.00;99.90;1.00;98108.00;;;;5055852;28;20440;-82
2021/12/17 08:02:08;;;;;;;2.27;1.47;;;1.10;99.90;0.70;98092.00;;;;5061469;28;20450;-82
2021/12/17 08:04:57;;;;;;;5.73;0.97;;;0.20;99.90;0.30;98096.00;;;;5061129;28;20443;-82
2021/12/17 08:07:46;;;;;;;1.27;1.00;;;1.00;99.90;-0.20;98101.00;;;;5059934;28;20798;-84
2021/12/17 08:10:35;;;;;;;0.80;0.70;;;0.80;99.90;-0.40;98088.00;;;;5065737;28;20516;-83
2021/12/17 08:13:28;;;;;;;1.23;1.10;;;0.70;99.90;0.30;98084.00;;;;5063649;28;20778;-84
2021/12/17 08:16:32;;;;;;;6.63;4.63;;;0.70;99.90;0.50;98085.00;;;;5065019;28;22174;-84
2021/12/17 08:25:50;;;;;;;2.90;1.80;;;1.10;99.90;1.20;98084.00;;;;5070324;28;20456;-83
2021/12/17 08:28:54;;;;;;;1.47;1.37;;;1.30;99.90;1.80;98113.00;;;;5068831;28;20466;-82
2021/12/17 08:31:43;;;;;;;1.97;1.60;;;1.50;99.90;1.90;98103.00;;;;5067036;28;20958;-84
2021/12/17 08:34:34;;;;;;;3.57;3.27;;;1.70;99.90;1.60;98110.00;;;;5064811;28;20430;-83
2021/12/17 08:37:23;;;;;;;4.53;1.93;;;1.80;99.90;1.60;98103.00;;;;5064372;28;20466;-83
2021/12/17 08:40:12;;;;;;;2.87;1.93;;;1.90;99.90;1.70;98110.00;;;;5060813;28;20450;-84
2021/12/17 08:43:02;;;;;;;2.67;2.20;;;1.90;99.90;1.70;98120.00;;;;5062886;28;20432;-84
2021/12/17 08:45:52;;;;;;;2.97;1.90;;;0.40;99.90;1.60;98109.00;;;;5059821;28;20432;-83
2021/12/17 08:48:41;;;;;;;2.30;1.67;;;1.90;99.90;1.60;98103.00;;;;5060816;28;20466;-83
2021/12/17 08:51:30;;;;;;;1.40;1.30;;;1.90;99.90;1.20;98101.00;;;;5062021;28;20542;-83
2021/12/17 08:54:19;;;;;;;1.63;1.47;;;1.90;99.90;1.10;98093.00;;;;5061919;28;20415;-83
2021/12/17 08:57:09;;;;;;;1.13;1.03;;;1.90;99.90;1.40;98101.00;;;;5057694;28;20422;-82
2021/12/17 09:00:04;;;;;;;1.40;1.10;;;1.80;99.90;2.20;98108.00;;;;5057711;28;20454;-83
2021/12/17 09:02:59;;;;;;;1.80;1.13;;;2.00;99.90;2.80;98116.00;;;;5059853;28;20435;-82
2021/12/17 09:05:48;;;;;;;1.57;1.20;;;2.10;99.90;2.70;98118.00;;;;5076173;28;20438;-84
2021/12/17 09:08:37;;;;;;;1.43;1.10;;;2.50;99.90;3.00;98123.00;;;;5063608;28;20462;-84
2021/12/17 09:11:28;;;;;;;1.70;1.60;;;2.60;99.90;2.50;98110.00;;;;5067065;28;21048;-84
2021/12/17 09:14:19;;;;;;;1.90;1.30;;;2.70;99.90;3.30;98117.00;;;;5066446;28;20442;-84
2021/12/17 09:17:08;;;;;;;2.13;1.73;;;3.00;99.90;3.50;98113.00;;;;5061366;28;20435;-83
2021/12/17 09:19:59;;;;;;;2.23;1.47;;;3.10;99.90;3.40;98106.00;;;;5062337;28;20460;-84
2021/12/17 09:22:47;;;;;;;1.97;1.47;;;3.20;99.90;3.70;98110.00;;;;5063354;28;20442;-84
2021/12/17 09:25:36;;;;;;;1.70;1.60;;;3.40;99.90;4.00;98089.00;;;;5063156;28;20439;-84
2021/12/17 09:28:25;;;;;;;3.07;1.70;;;3.50;99.90;3.60;98080.00;;;;5064718;28;21357;-84
2021/12/17 09:31:14;;;;;;;4.97;1.60;;;3.70;99.90;3.80;98079.00;;;;5064600;28;20219;-83
2021/12/17 09:34:03;;;;;;;2.40;1.77;;;3.80;99.90;3.40;98073.00;;;;5064546;28;20220;-83
2021/12/17 09:36:54;;;;;;;1.93;1.60;;;3.70;99.90;3.70;98067.00;;;;5064455;28;20200;-83
2021/12/17 09:39:42;;;;;;;1.90;1.70;;;3.70;99.90;3.90;98079.00;;;;5065519;28;20619;-83
2021/12/17 09:42:32;;;;;;;3.63;1.77;;;3.80;99.90;4.30;98080.00;;;;5066290;28;20439;-83
2021/12/17 09:45:21;;;;;;;4.77;2.23;;;3.70;99.90;4.40;98068.00;;;;5062079;28;20765;-83
2021/12/17 09:48:09;;;;;;;2.57;1.97;;;4.00;99.90;4.50;98082.00;;;;5063821;28;20220;-82
2021/12/17 09:50:58;;;;;;;7.17;2.47;;;4.20;99.90;4.50;98097.00;;;;5063409;28;20230;-83
2021/12/17 09:53:49;;;;;;;4.07;2.50;;;4.20;99.90;4.10;98088.00;;;;5061786;28;20204;-84
2021/12/17 09:56:38;;;;;;;5.63;2.33;;;4.30;99.90;4.30;98068.00;;;;5063887;28;20218;-83
2021/12/17 09:59:27;;;;;;;3.70;2.40;;;4.30;99.90;4.90;98081.00;;;;5064089;28;20209;-82
2021/12/17 10:02:16;;;;;;;8.80;4.70;;;4.40;99.90;4.50;98065.00;;;;5060041;28;20617;-83
2021/12/17 10:05:06;;;;;;;4.57;2.47;;;4.60;99.90;4.10;98072.00;;;;5059100;28;20216;-83
2021/12/17 10:07:57;;;;;;;4.27;1.87;;;4.60;99.90;4.20;98063.00;;;;5065677;28;20219;-82
2021/12/17 10:10:50;;;;;;;3.10;2.17;;;4.60;99.90;3.70;98042.00;;;;5069941;28;20308;-82
2021/12/17 10:13:39;;;;;;;3.77;2.70;;;4.40;99.90;4.40;98056.00;;;;5061537;28;20220;-82
2021/12/17 10:16:28;;;;;;;5.10;3.67;;;4.40;99.90;4.60;98053.00;;;;5058985;28;20215;-83
2021/12/17 10:19:47;;;;;;;3.40;2.10;;;4.50;99.90;5.80;98058.00;;;;5062576;28;20219;-83
2021/12/17 10:22:36;;;;;;;4.37;2.03;;;5.20;99.90;7.00;98065.00;;;;5063115;28;20222;-83
2021/12/17 10:25:26;;;;;;;2.67;2.17;;;6.60;99.90;7.40;98069.00;;;;5064645;28;20203;-83
2021/12/17 10:28:17;;;;;;;9.77;6.20;;;7.90;99.90;7.30;98061.00;;;;5064642;28;20840;-83
2021/12/17 10:31:11;;;;;;;5.70;4.50;;;8.60;99.90;7.80;98065.00;;;;5066192;28;20236;-83
2021/12/17 10:34:04;;;;;;;5.00;4.07;;;9.30;99.90;7.00;98044.00;;;;5067348;28;20634;-83
2021/12/17 10:36:52;;;;;;;3.33;1.17;;;9.90;99.90;6.20;98037.00;;;;5065032;28;20216;-84
2021/12/17 10:39:41;;;;;;;1.00;0.90;;;9.20;96.90;7.30;98041.00;;;;5065978;28;20223;-83
2021/12/17 10:42:33;;;;;;;1.97;1.70;;;8.90;98.60;8.70;98028.00;;;;5061835;28;20200;-80
2021/12/17 10:45:28;;;;;;;2.03;1.80;;;9.20;99.90;9.10;98025.00;;;;5060251;28;20207;-81
2021/12/17 10:48:32;;;;;;;2.97;1.77;;;9.80;99.40;9.70;98022.00;;;;5059868;28;20211;-80
2021/12/17 10:51:46;;;;;;;2.50;1.20;;;10.60;97.70;7.20;97997.00;;;;5059873;28;20700;-81
2021/12/17 10:54:35;;;;;;;5.17;1.57;;;10.30;92.40;9.10;98023.00;;;;5062094;28;20545;-80
2021/12/17 10:57:30;;;;;;;1.97;0.80;;;10.00;95.20;8.20;98029.00;;;;5059984;28;20207;-80
2021/12/17 11:00:22;;;;;;;2.17;1.23;;;9.90;93.40;8.00;98009.00;;;;5060232;28;20236;-81
2021/12/17 11:03:11;;;;;;;1.33;1.10;;;9.40;93.40;7.80;98027.00;;;;5060726;28;20604;-80
2021/12/17 11:06:00;;;;;;;3.90;1.97;;;9.00;93.60;8.50;98011.00;;;;5058542;28;20208;-81
2021/12/17 11:08:49;;;;;;;1.23;1.00;;;8.80;95.40;9.20;98007.00;;;;5067291;28;20218;-79
2021/12/17 11:11:41;;;;;;;1.57;1.33;;;9.10;95.70;10.10;97997.00;;;;5064503;28;20236;-81
2021/12/17 11:14:30;;;;;;;1.30;1.20;;;9.60;95.30;10.40;98043.00;;;;5059012;28;20249;-81
2021/12/17 11:17:32;;;;;;;1.40;0.90;;;10.20;94.60;9.20;98029.00;;;;5061074;28;20200;-81
2021/12/17 11:20:28;;;;;;;2.60;1.43;;;10.50;92.20;10.50;98016.00;;;;5062190;28;20238;-81
2021/12/17 11:23:17;;;;;;;2.57;1.10;;;10.60;92.30;10.50;98039.00;;;;5052295;28;20231;-80
2021/12/17 11:26:06;;;;;;;1.40;1.30;;;10.80;92.20;10.50;98006.00;;;;5059795;28;20221;-82
2021/12/17 11:29:00;;;;;;;1.47;0.93;;;10.80;91.60;11.10;98021.00;;;;5061060;28;20213;-81
2021/12/17 11:31:50;;;;;;;2.47;1.63;;;11.20;92.20;10.40;98006.00;;;;5059936;28;20226;-82
2021/12/17 11:34:43;;;;;;;3.07;1.43;;;11.40;89.40;12.00;98030.00;;;;5060937;28;20204;-82
2021/12/17 11:37:32;;;;;;;2.60;1.87;;;11.60;90.10;12.00;98025.00;;;;5062986;28;20204;-81
2021/12/17 11:40:26;;;;;;;2.33;1.70;;;11.80;89.40;12.60;97993.00;;;;5063531;28;20278;-81
2021/12/17 11:43:50;;;;;;;1.67;1.53;;;12.10;88.30;13.60;97989.00;;;;5061531;28;20219;-82
2021/12/17 11:46:39;;;;;;;1.40;1.10;;;12.80;87.60;11.70;97993.00;;;;5055938;28;20213;-81
2021/12/17 11:49:34;;;;;;;5.57;1.30;;;13.00;81.60;10.80;98000.00;;;;5059920;28;20645;-81
2021/12/17 11:52:44;;;;;;;2.63;1.57;;;12.50;80.30;11.60;97994.00;;;;5062016;28;20424;-82
2021/12/17 11:55:36;;;;;;;3.83;1.93;;;12.10;81.20;11.00;97995.00;;;;5057602;28;20211;-84
2021/12/17 11:58:51;;;;;;;5.20;1.37;;;11.70;83.10;11.40;98013.00;;;;5054286;28;20204;-85
2021/12/17 12:01:59;;;;;;;7.27;1.30;;;11.40;80.90;11.20;97987.00;;;;5055050;28;20243;-84
2021/12/17 12:04:57;;;;;;;2.25;0.45;;;11.30;82.00;11.40;97989.00;;;;5052833;28;20769;-84
2021/12/17 12:07:47;;;;;;;1.00;0.50;;;11.20;79.80;11.80;98001.00;;;;5053808;28;20205;-86
2021/12/17 12:10:37;;;;;;;0.47;0.30;;;11.20;81.10;11.90;98003.00;;;;5052713;28;20224;-84
2021/12/17 12:13:35;;;;;;;0.67;0.37;;;11.40;79.50;12.50;97964.00;;;;5054761;28;20207;-84
2021/12/17 12:16:30;;;;;;;0.37;0.30;;;11.70;78.60;13.40;97984.00;;;;5053530;28;20574;-84
2021/12/17 12:19:18;;;;;;;0.30;0.30;;;12.40;76.00;13.70;98010.00;;;;5054281;28;20216;-85
2021/12/17 12:22:08;;;;;;;0.50;0.30;;;13.00;72.40;12.30;97962.00;;;;5054032;28;20218;-84
2021/12/17 12:25:32;;;;;;;3.03;0.40;;;13.00;69.10;13.20;97979.00;;;;5060676;28;20212;-83
2021/12/17 12:28:53;;;;;;;0.77;0.37;;;13.30;69.10;14.70;97980.00;;;;5060525;28;20215;-85
2021/12/17 12:32:02;;;;;;;0.93;0.37;;;14.10;68.40;15.90;97977.00;;;;5059638;28;20235;-86
2021/12/17 12:34:53;;;;;;;2.30;0.60;;;15.10;66.20;16.90;98021.00;;;;5061203;28;20688;-86
2021/12/17 12:37:44;;;;;;;0.70;0.20;;;15.90;65.40;15.10;97970.00;;;;5059239;28;20205;-85
2021/12/17 12:40:46;;;;;;;0.30;0.17;;;16.20;58.70;16.60;97975.00;;;;5061594;28;20228;-86
2021/12/17 12:43:37;;;;;;;2.83;0.43;;;16.40;59.20;16.00;97988.00;;;;5063509;28;20222;-86
2021/12/17 12:46:54;;;;;;;0.30;0.30;;;16.50;57.90;17.00;97985.00;;;;5053274;28;20216;-84
2021/12/17 12:49:45;;;;;;;0.60;0.20;;;16.90;58.20;16.60;97993.00;;;;5051032;28;20224;-85
2021/12/17 12:52:41;;;;;;;1.13;0.53;;;17.00;56.60;15.70;97995.00;;;;5052760;28;20861;-85
2021/12/17 12:55:33;;;;;;;0.33;0.20;;;17.00;55.30;16.00;97993.00;;;;5051726;28;20612;-84
2021/12/17 12:58:28;;;;;;;0.80;0.40;;;16.70;55.80;15.00;97986.00;;;;5055621;28;20203;-85
2021/12/17 13:01:21;;;;;;;0.50;0.30;;;16.40;54.40;15.80;97981.00;;;;5059730;28;20235;-84
2021/12/17 13:04:11;;;;;;;0.43;0.30;;;15.90;55.40;17.00;97973.00;;;;5057728;28;20312;-84
2021/12/17 13:07:00;;;;;;;0.40;0.40;;;16.40;56.50;17.00;98000.00;;;;5055948;28;20731;-86
2021/12/17 13:09:52;;;;;;;0.20;0.10;;;17.30;54.70;17.30;97961.00;;;;5055997;28;21546;-86
2021/12/17 13:12:52;;;;;;;0.40;0.30;;;18.00;52.50;17.80;97959.00;;;;5053519;28;20978;-85
2021/12/17 13:15:46;;;;;;;0.67;0.20;;;18.20;52.20;18.50;97969.00;;;;5053454;28;20713;-86
2021/12/17 13:22:00;;;;;;;0.20;0.20;;;18.90;52.70;15.50;97972.00;;;;5063420;28;20232;-85
2021/12/17 13:24:48;;;;;;;0.37;0.23;;;18.20;49.80;16.80;97962.00;;;;5058790;28;20699;-84
2021/12/17 13:27:41;;;;;;;0.23;0.17;;;17.70;51.90;16.40;97962.00;;;;5058243;28;20204;-84
2021/12/17 13:30:30;;;;;;;0.50;0.40;;;17.80;51.30;17.50;97957.00;;;;5055996;28;20704;-85
2021/12/17 13:33:20;;;;;;;1.80;0.77;;;17.90;51.20;17.70;97964.00;;;;5063948;28;20208;-85
2021/12/17 13:36:57;;;;;;;0.87;0.80;;;18.20;50.60;17.80;97969.00;;;;5068557;28;20211;-86
2021/12/17 13:39:51;;;;;;;0.30;0.20;;;18.40;50.20;15.10;97942.00;;;;5062853;28;20239;-86
2021/12/17 13:42:43;;;;;;;3.50;0.60;;;17.70;49.40;17.30;97960.00;;;;5061415;28;20200;-84
2021/12/17 13:45:32;;;;;;;0.30;0.23;;;17.70;51.00;17.00;98007.00;;;;5059760;28;20211;-85
2021/12/17 13:48:22;;;;;;;4.23;0.67;;;17.90;50.20;15.00;97994.00;;;;5055406;28;20239;-83
2021/12/17 13:51:14;;;;;;;2.20;0.40;;;17.20;50.60;14.00;97993.00;;;;5063334;28;20240;-85
2021/12/17 13:54:04;;;;;;;0.53;0.30;;;16.00;51.70;13.40;97992.00;;;;5057625;28;20211;-85
2021/12/17 13:56:58;;;;;;;1.43;0.30;;;15.10;53.00;12.90;97987.00;;;;5065785;28;20197;-84
2021/12/17 13:59:48;;;;;;;0.53;0.30;;;14.20;54.60;12.10;97980.00;;;;5079854;28;20357;-85
2021/12/17 14:02:39;;;;;;;0.93;0.40;;;13.50;56.00;12.00;97991.00;;;;5064843;28;20243;-86
2021/12/17 14:05:40;;;;;;;;;;;12.80;56.60;11.90;97987.00;;;;5057308;28;20056;-85
2021/12/17 14:08:28;;;;;;;6.13;1.57;;;12.40;58.20;11.30;97994.00;;;;5062129;28;20206;-85
2021/12/17 14:11:24;;;;;;;2.20;0.60;;;11.90;60.40;11.00;97985.00;;;;5061665;28;20250;-85
2021/12/17 14:14:29;;;;;;;0.40;0.40;;;11.60;61.30;10.90;97982.00;;;;5054622;28;20204;-85
2021/12/17 14:17:19;;;;;;;2.70;1.87;;;11.20;62.20;10.40;97982.00;;;;5060176;28;20693;-85
2021/12/17 14:20:14;;;;;;;4.07;1.60;;;10.90;63.90;10.20;97973.00;;;;5060993;28;20311;-85
2021/12/17 14:23:09;;;;;;;8.40;2.90;;;10.60;65.40;9.40;97968.00;;;;5060113;28;20813;-85
2021/12/17 14:25:59;;;;;;;27.07;21.03;;;10.30;67.80;9.30;97978.00;;;;5059259;28;20219;-85
2021/12/17 14:28:48;;;;;;;9.70;7.77;;;9.90;69.00;9.00;97973.00;;;;5055393;28;20205;-85
2021/12/17 14:31:37;;;;;;;6.93;4.23;;;9.60;70.90;8.70;97969.00;;;;5054004;28;20235;-84
2021/12/17 14:34:27;;;;;;;1.33;0.90;;;9.30;74.10;7.80;97965.00;;;;5058949;28;20255;-84
2021/12/17 14:37:16;;;;;;;2.97;2.50;;;8.80;76.30;8.10;97963.00;;;;5057659;28;20196;-85
2021/12/17 14:40:26;;;;;;;2.87;2.47;;;8.50;78.30;8.10;97952.00;;;;5062269;28;20231;-86
2021/12/17 14:43:25;;;;;;;7.10;2.10;;;8.30;79.60;7.80;97954.00;;;;5058818;28;20223;-84
2021/12/17 14:46:21;;;;;;;8.57;1.87;;;8.10;80.20;7.70;97952.00;;;;5060193;28;20226;-86
2021/12/17 14:49:29;;;;;;;5.13;2.37;;;7.90;82.70;7.40;97946.00;;;;5058940;28;20218;-85
2021/12/17 15:02:10;;;;;;;5.33;2.10;;;7.30;89.60;6.70;97925.00;;;;5059876;28;20223;-85
2021/12/17 15:04:59;;;;;;;2.77;2.30;;;7.10;90.40;6.60;97926.00;;;;5057779;28;20196;-84
2021/12/17 15:07:49;;;;;;;2.43;1.53;;;6.90;90.90;6.80;97933.00;;;;5060651;28;20204;-85
2021/12/17 15:10:39;;;;;;;1.83;1.10;;;6.80;91.90;6.60;97937.00;;;;5054550;28;20212;-85
2021/12/17 15:13:29;;;;;;;4.17;2.60;;;6.80;92.60;6.40;97948.00;;;;5056617;28;20204;-85
2021/12/17 15:16:19;;;;;;;8.70;5.23;;;6.60;93.20;6.30;97946.00;;;;5060089;28;20239;-85